Time;durP1;ratioP1;P1;durP2;ratioP2;P2;SDS_P1;SDS_P2;PMS_P1;PMS_P2;Temp;Humidity;BMP_temperature;BMP_pressure;BME280_temperature;BME280_humidity;BME280_pressure;Samples;Min_cycle;Max_cycle;Signal;HPM_P1;HPM_P2
2022/01/16 00:04:34;;;;;;;16.88;3.40;;;1.70;99.90;;;;;;4983476;28;20133;-63
2022/01/16 00:07:04;;;;;;;12.32;3.45;;;1.70;99.90;;;;;;4980614;28;20073;-64
2022/01/16 00:09:32;;;;;;;23.30;3.95;;;1.70;99.90;;;;;;4982198;28;20469;-70
2022/01/16 00:12:00;;;;;;;8.55;2.90;;;1.70;99.90;;;;;;4982484;28;20820;-71
2022/01/16 00:14:29;;;;;;;13.93;2.40;;;1.70;99.90;;;;;;4981851;28;20064;-75
2022/01/16 00:16:57;;;;;;;6.75;2.78;;;1.70;99.90;;;;;;4982155;28;20058;-67
2022/01/16 00:19:25;;;;;;;15.13;4.88;;;1.60;99.90;;;;;;4979904;28;20745;-65
2022/01/16 00:21:53;;;;;;;14.35;3.75;;;1.70;99.90;;;;;;4981761;28;20504;-66
2022/01/16 00:24:20;;;;;;;22.90;4.75;;;1.60;99.90;;;;;;4981784;28;20057;-65
2022/01/16 00:26:47;;;;;;;14.07;3.65;;;1.70;99.90;;;;;;4982778;28;20148;-68
2022/01/16 00:29:14;;;;;;;18.15;4.15;;;1.60;99.90;;;;;;4977570;28;20141;-68
2022/01/16 00:31:41;;;;;;;13.98;4.35;;;1.70;99.90;;;;;;4982422;28;20122;-65
2022/01/16 00:34:09;;;;;;;19.92;4.85;;;1.70;99.90;;;;;;4980665;28;20084;-66
2022/01/16 00:36:36;;;;;;;19.10;3.22;;;1.70;99.90;;;;;;4981696;28;20097;-64
2022/01/16 00:39:04;;;;;;;17.70;4.75;;;1.70;99.90;;;;;;4979832;28;20082;-67
2022/01/16 00:41:32;;;;;;;16.35;3.30;;;1.60;99.90;;;;;;4996642;28;20168;-75
2022/01/16 00:43:59;;;;;;;10.30;3.72;;;1.70;99.90;;;;;;4981455;28;20150;-70
2022/01/16 00:46:26;;;;;;;17.02;4.05;;;1.70;99.90;;;;;;4982393;28;20133;-65
2022/01/16 00:48:53;;;;;;;9.10;3.50;;;1.70;99.90;;;;;;4982256;28;20140;-66
2022/01/16 00:51:20;;;;;;;17.80;3.70;;;1.60;99.90;;;;;;4979329;28;20050;-70
2022/01/16 00:53:47;;;;;;;16.77;4.10;;;1.70;99.90;;;;;;4981103;28;20113;-69
2022/01/16 00:56:14;;;;;;;16.77;3.17;;;1.70;99.90;;;;;;4981405;28;20555;-66
2022/01/16 00:58:41;;;;;;;13.25;3.25;;;1.70;99.90;;;;;;4981847;28;20708;-66
2022/01/16 01:01:09;;;;;;;14.50;3.83;;;1.70;99.90;;;;;;4979867;28;20062;-67
2022/01/16 01:03:37;;;;;;;11.25;4.95;;;1.70;99.90;;;;;;4982324;28;20050;-68
2022/01/16 01:06:05;;;;;;;19.45;4.50;;;1.70;99.90;;;;;;4982172;28;20116;-67
2022/01/16 01:08:32;;;;;;;21.63;5.05;;;1.80;99.90;;;;;;4981352;28;21428;-64
2022/01/16 01:11:04;;;;;;;22.77;6.20;;;1.80;99.90;;;;;;4982005;28;20141;-66
2022/01/16 01:13:43;;;;;;;19.63;4.90;;;1.80;99.90;;;;;;4979178;28;20157;-66
2022/01/16 01:16:15;;;;;;;28.92;7.25;;;1.80;99.90;;;;;;4981675;28;20057;-74
2022/01/16 01:18:44;;;;;;;16.50;3.20;;;1.80;99.90;;;;;;4979570;28;20972;-62
2022/01/16 01:21:24;;;;;;;12.27;4.65;;;1.80;99.90;;;;;;4978055;28;20050;-69
2022/01/16 01:23:51;;;;;;;19.70;4.38;;;1.90;99.90;;;;;;4979933;28;20046;-68
2022/01/16 01:26:19;;;;;;;16.38;4.32;;;1.80;99.90;;;;;;4979858;28;20042;-71
2022/01/16 01:28:46;;;;;;;21.92;5.13;;;1.90;99.90;;;;;;4981265;28;20112;-72
2022/01/16 01:31:13;;;;;;;14.00;4.78;;;1.90;99.90;;;;;;4978128;28;20136;-64
2022/01/16 01:33:40;;;;;;;14.90;3.33;;;1.90;99.90;;;;;;4980476;28;20087;-67
2022/01/16 01:36:07;;;;;;;19.02;4.97;;;1.90;99.90;;;;;;4979436;28;20074;-66
2022/01/16 01:38:34;;;;;;;16.27;4.88;;;2.00;99.90;;;;;;4980237;28;20046;-65
2022/01/16 01:41:01;;;;;;;13.55;3.65;;;2.00;99.90;;;;;;4978060;28;20124;-64
2022/01/16 01:51:37;;;;;;;16.65;3.25;;;2.20;99.90;;;;;;4976918;28;20496;-66
2022/01/16 01:54:06;;;;;;;8.20;3.22;;;2.30;99.90;;;;;;4977224;28;20050;-67
2022/01/16 01:56:33;;;;;;;18.33;5.07;;;2.40;99.90;;;;;;4979851;28;20062;-65
2022/01/16 01:59:02;;;;;;;11.55;4.60;;;2.40;99.90;;;;;;4977458;28;20140;-69
2022/01/16 02:01:30;;;;;;;9.57;2.40;;;2.40;99.90;;;;;;4977092;28;20046;-67
2022/01/16 02:03:58;;;;;;;11.80;2.55;;;2.50;99.90;;;;;;4978515;28;20050;-66
2022/01/16 02:06:30;;;;;;;13.45;5.20;;;2.50;99.90;;;;;;4975502;28;20043;-69
2022/01/16 02:09:00;;;;;;;27.10;3.92;;;2.50;99.90;;;;;;4977800;28;20092;-74
2022/01/16 02:11:30;;;;;;;8.60;2.43;;;2.60;99.90;;;;;;4975637;28;20050;-69
2022/01/16 02:14:11;;;;;;;16.35;3.53;;;2.60;99.90;;;;;;4976710;28;21376;-71
2022/01/16 02:31:22;;;;;;;16.25;4.05;;;2.70;99.90;;;;;;4956713;28;20090;-67
2022/01/16 02:36:45;;;;;;;11.70;4.25;;;2.70;99.90;;;;;;4966792;28;20124;-69
2022/01/16 02:39:14;;;;;;;14.52;4.88;;;2.80;99.90;;;;;;4964765;28;20096;-71
2022/01/16 02:41:44;;;;;;;7.47;3.58;;;2.80;99.90;;;;;;4972399;28;20698;-65
2022/01/16 02:44:41;;;;;;;13.93;4.38;;;2.70;99.90;;;;;;4966167;28;20053;-67
2022/01/16 02:47:00;;;;;;;14.00;4.05;;;2.70;99.90;;;;;;4975178;28;20352;-66
2022/01/16 02:49:30;;;;;;;17.33;3.95;;;2.80;99.90;;;;;;4967761;28;20134;-67
2022/01/16 02:52:09;;;;;;;17.70;3.95;;;2.80;99.90;;;;;;4975611;28;20096;-71
2022/01/16 02:54:39;;;;;;;20.70;5.15;;;2.80;99.90;;;;;;4970679;28;20054;-63
2022/01/16 02:57:09;;;;;;;15.30;3.83;;;2.80;99.90;;;;;;4970730;28;20441;-73
2022/01/16 02:59:37;;;;;;;8.88;3.45;;;2.90;99.90;;;;;;4976020;28;20066;-64
2022/01/16 03:02:08;;;;;;;18.05;5.10;;;2.80;99.90;;;;;;4964419;28;20076;-66
2022/01/16 03:04:35;;;;;;;17.13;5.53;;;2.90;99.90;;;;;;4925983;28;23143;-63
2022/01/16 03:07:15;;;;;;;15.47;4.78;;;2.90;99.90;;;;;;3416750;28;10021631;-66
2022/01/16 03:12:09;;;;;;;11.93;3.63;;;2.80;99.90;;;;;;1309292;28;10001877;-64
2022/01/16 03:14:37;;;;;;;18.08;4.10;;;2.90;99.90;;;;;;4960963;28;20105;-69
2022/01/16 03:17:04;;;;;;;23.20;5.47;;;2.90;99.90;;;;;;4975350;28;20102;-69
2022/01/16 03:22:17;;;;;;;19.52;6.15;;;2.90;99.90;;;;;;4958901;28;20077;-65
2022/01/16 03:24:45;;;;;;;11.77;5.38;;;2.90;99.90;;;;;;4970064;28;20132;-63
2022/01/16 03:27:18;;;;;;;18.92;4.45;;;2.80;99.90;;;;;;4975411;28;20049;-64
2022/01/16 03:29:51;;;;;;;19.70;5.55;;;2.90;99.90;;;;;;4976033;28;20097;-67
2022/01/16 03:32:20;;;;;;;12.10;4.72;;;2.90;99.90;;;;;;4970099;28;21047;-68
2022/01/16 03:34:47;;;;;;;14.30;4.32;;;2.90;99.90;;;;;;4963918;28;20051;-66
2022/01/16 03:37:15;;;;;;;15.45;4.57;;;2.90;99.90;;;;;;4974827;28;20141;-72
2022/01/16 03:39:42;;;;;;;24.55;6.25;;;2.90;99.90;;;;;;4976708;28;20129;-69
2022/01/16 03:42:09;;;;;;;25.52;5.45;;;2.90;99.90;;;;;;4977785;28;20057;-67
2022/01/16 03:44:36;;;;;;;13.50;5.53;;;2.90;99.90;;;;;;4976964;28;20105;-66
2022/01/16 03:47:04;;;;;;;17.10;5.38;;;2.80;99.90;;;;;;4977348;28;20046;-70
2022/01/16 03:49:32;;;;;;;18.60;7.47;;;2.80;99.90;;;;;;4977493;28;20080;-64
2022/01/16 03:52:00;;;;;;;16.60;5.30;;;2.80;99.90;;;;;;4978418;28;20468;-69
2022/01/16 03:54:30;;;;;;;26.52;5.93;;;2.80;99.90;;;;;;4978095;28;20268;-67
2022/01/16 03:56:58;;;;;;;;;;;2.80;99.90;;;;;;4978188;28;20093;-63
2022/01/16 03:59:25;;;;;;;28.77;7.35;;;2.80;99.90;;;;;;4973819;28;20008;-64
2022/01/16 04:01:53;;;;;;;14.60;5.03;;;2.80;99.90;;;;;;4977946;28;20070;-67
2022/01/16 04:04:20;;;;;;;18.90;5.32;;;2.80;99.90;;;;;;4976624;28;20051;-69
2022/01/16 04:06:47;;;;;;;15.75;5.47;;;2.90;99.90;;;;;;4977398;28;20165;-68
2022/01/16 04:09:14;;;;;;;20.23;6.07;;;2.90;99.90;;;;;;4976127;28;20077;-68
2022/01/16 04:11:51;;;;;;;22.35;5.45;;;2.90;99.90;;;;;;4978835;28;20109;-75
2022/01/16 04:14:26;;;;;;;12.63;6.13;;;2.90;99.90;;;;;;4973577;28;20046;-65
2022/01/16 04:16:53;;;;;;;19.90;5.80;;;2.90;99.90;;;;;;4974381;28;20073;-65
2022/01/16 04:19:21;;;;;;;21.95;4.93;;;2.90;99.90;;;;;;4975500;28;20046;-64
2022/01/16 04:21:48;;;;;;;21.13;5.82;;;2.90;99.90;;;;;;4976469;28;20124;-69
2022/01/16 04:24:15;;;;;;;17.90;6.03;;;2.90;99.90;;;;;;4977611;28;20129;-69
2022/01/16 04:26:42;;;;;;;14.88;4.68;;;2.90;99.90;;;;;;4975725;28;20050;-69
2022/01/16 04:29:09;;;;;;;16.38;5.25;;;2.90;99.90;;;;;;4971542;28;20074;-65
2022/01/16 04:31:35;;;;;;;19.60;5.50;;;2.90;99.90;;;;;;4977950;28;20050;-67
2022/01/16 04:34:02;;;;;;;24.85;5.90;;;2.80;99.90;;;;;;4976845;28;20039;-65
2022/01/16 04:36:29;;;;;;;16.50;5.00;;;2.80;99.90;;;;;;4977207;28;20054;-66
2022/01/16 04:38:56;;;;;;;16.15;5.60;;;2.80;99.90;;;;;;4899044;28;20054;-64
2022/01/16 04:44:19;;;;;;;21.05;5.82;;;2.80;99.90;;;;;;4972786;28;20258;-72
2022/01/16 04:46:46;;;;;;;8.38;4.43;;;2.80;99.90;;;;;;4980719;28;20074;-67
2022/01/16 04:49:13;;;;;;;23.67;5.80;;;2.80;99.90;;;;;;4978975;28;21157;-67
2022/01/16 04:51:40;;;;;;;12.23;5.07;;;2.80;99.90;;;;;;4978905;28;20515;-71
2022/01/16 04:54:08;;;;;;;13.95;4.43;;;2.80;99.90;;;;;;4980802;28;20062;-68
2022/01/16 04:56:35;;;;;;;13.25;4.28;;;2.90;99.90;;;;;;4980371;28;20122;-66
2022/01/16 04:59:02;;;;;;;17.40;4.82;;;2.90;99.90;;;;;;4979311;28;20137;-71
2022/01/16 05:01:29;;;;;;;10.45;4.35;;;2.90;99.90;;;;;;4979972;28;20121;-69
2022/01/16 05:03:56;;;;;;;11.13;3.60;;;2.90;99.90;;;;;;4979494;28;20085;-74
2022/01/16 05:06:23;;;;;;;13.40;4.05;;;3.00;99.90;;;;;;4978226;28;20704;-69
2022/01/16 05:08:50;;;;;;;11.50;4.45;;;3.00;99.90;;;;;;4975889;28;21134;-69
2022/01/16 05:11:24;;;;;;;14.40;4.10;;;3.00;99.90;;;;;;4976047;28;20071;-69
2022/01/16 05:16:38;;;;;;;11.93;3.95;;;3.10;99.90;;;;;;4978499;28;20051;-69
2022/01/16 05:19:13;;;;;;;10.88;3.92;;;3.10;99.90;;;;;;4975274;28;20064;-72
2022/01/16 05:21:42;;;;;;;9.90;3.88;;;3.10;99.90;;;;;;4977686;28;20057;-71
2022/01/16 05:24:11;;;;;;;12.65;4.75;;;3.10;99.90;;;;;;4977010;28;20065;-66
2022/01/16 05:26:43;;;;;;;9.63;3.65;;;3.10;99.90;;;;;;4976451;28;20128;-65
2022/01/16 05:29:11;;;;;;;8.27;3.30;;;3.20;99.90;;;;;;4978309;28;20050;-64
2022/01/16 05:31:44;;;;;;;7.32;3.63;;;3.20;99.90;;;;;;4979733;28;20176;-75
2022/01/16 05:34:18;;;;;;;10.27;3.33;;;3.20;99.90;;;;;;4981965;28;20058;-67
2022/01/16 05:36:46;;;;;;;8.30;3.25;;;3.20;99.90;;;;;;4979531;28;20081;-67
2022/01/16 05:39:13;;;;;;;7.45;3.33;;;3.20;99.90;;;;;;4978497;28;20145;-64
2022/01/16 05:41:40;;;;;;;8.30;4.72;;;3.30;99.90;;;;;;4979763;28;20433;-65
2022/01/16 05:44:07;;;;;;;7.85;3.60;;;3.30;99.90;;;;;;4979183;28;20057;-69
2022/01/16 05:46:34;;;;;;;9.55;4.32;;;3.30;99.90;;;;;;4980105;28;20937;-67
2022/01/16 05:49:02;;;;;;;13.07;4.07;;;3.30;99.90;;;;;;4978152;28;20046;-64
2022/01/16 05:51:29;;;;;;;7.20;3.63;;;3.30;99.90;;;;;;4978535;28;20057;-65
2022/01/16 05:53:57;;;;;;;7.15;3.22;;;3.30;99.90;;;;;;4978347;28;20050;-66
2022/01/16 05:56:24;;;;;;;10.73;3.97;;;3.30;99.90;;;;;;4979977;28;21530;-65
2022/01/16 05:58:51;;;;;;;9.25;3.08;;;3.30;99.90;;;;;;4978264;28;20136;-64
2022/01/16 06:01:18;;;;;;;10.98;4.00;;;3.30;99.90;;;;;;4977220;28;20373;-68
2022/01/16 06:03:45;;;;;;;7.82;4.65;;;3.30;99.90;;;;;;4979048;28;20056;-67
2022/01/16 06:06:12;;;;;;;10.02;4.88;;;3.30;99.90;;;;;;4979858;28;20782;-66
2022/01/16 06:08:39;;;;;;;11.77;4.35;;;3.40;99.90;;;;;;4979985;28;20097;-65
2022/01/16 06:11:06;;;;;;;5.57;3.15;;;3.40;99.90;;;;;;4978093;28;20081;-65
2022/01/16 06:13:33;;;;;;;7.05;3.05;;;3.40;99.90;;;;;;4980533;28;20415;-68
2022/01/16 06:16:02;;;;;;;12.93;3.03;;;3.40;99.90;;;;;;4979304;28;20046;-67
2022/01/16 06:18:29;;;;;;;23.40;3.60;;;3.40;99.90;;;;;;4980100;28;20140;-69
2022/01/16 06:20:56;;;;;;;6.85;3.58;;;3.40;99.90;;;;;;4979190;28;20050;-72
2022/01/16 06:23:23;;;;;;;8.10;3.15;;;3.40;99.90;;;;;;4978722;28;20514;-68
2022/01/16 06:25:54;;;;;;;7.70;3.47;;;3.40;99.90;;;;;;4978874;28;20058;-71
2022/01/16 06:28:25;;;;;;;9.25;2.60;;;3.40;99.90;;;;;;4979452;28;20200;-67
2022/01/16 06:30:52;;;;;;;16.38;4.43;;;3.40;99.90;;;;;;4978621;28;20093;-70
2022/01/16 06:33:19;;;;;;;10.27;2.85;;;3.40;99.90;;;;;;4976236;28;20066;-68
2022/01/16 06:35:46;;;;;;;11.52;4.28;;;3.40;99.90;;;;;;4980258;28;20054;-64
2022/01/16 06:38:13;;;;;;;8.88;4.03;;;3.30;99.90;;;;;;4978810;28;20066;-71
2022/01/16 06:40:40;;;;;;;14.18;5.40;;;3.30;99.90;;;;;;4979054;28;20065;-66
2022/01/16 06:43:07;;;;;;;10.43;4.20;;;3.30;99.90;;;;;;4976939;28;20104;-68
2022/01/16 06:45:34;;;;;;;11.85;4.07;;;3.40;99.90;;;;;;4978916;28;20162;-65
2022/01/16 06:48:02;;;;;;;10.15;3.90;;;3.40;99.90;;;;;;4977961;28;20054;-67
2022/01/16 06:50:28;;;;;;;9.15;3.03;;;3.40;99.90;;;;;;4979499;28;20172;-70
2022/01/16 06:52:55;;;;;;;8.57;3.33;;;3.40;99.90;;;;;;4992781;28;20128;-69
2022/01/16 06:55:22;;;;;;;11.95;4.60;;;3.40;99.90;;;;;;4974281;28;20136;-65
2022/01/16 06:57:49;;;;;;;6.68;3.33;;;3.40;99.90;;;;;;4982054;28;20483;-67
2022/01/16 07:00:16;;;;;;;12.13;3.17;;;3.40;99.90;;;;;;4982780;28;20157;-66
2022/01/16 07:02:56;;;;;;;5.28;2.70;;;3.40;99.90;;;;;;3413422;28;10022131;-65
2022/01/16 07:05:23;;;;;;;10.20;3.47;;;3.40;99.90;;;;;;3253606;28;10001986;-70
2022/01/16 07:07:51;;;;;;;10.27;3.58;;;3.40;99.90;;;;;;4980070;28;20468;-63
2022/01/16 07:10:19;;;;;;;10.43;3.50;;;3.40;99.90;;;;;;4980511;28;20097;-67
2022/01/16 07:12:46;;;;;;;8.48;3.67;;;3.40;99.90;;;;;;4972075;28;20058;-68
2022/01/16 07:15:13;;;;;;;9.15;3.83;;;3.40;99.90;;;;;;4981603;28;20508;-69
2022/01/16 07:17:40;;;;;;;14.45;4.05;;;3.50;99.90;;;;;;4983390;28;20128;-70
2022/01/16 07:20:11;;;;;;;11.23;3.55;;;3.50;99.90;;;;;;4981820;28;20058;-66
2022/01/16 07:22:38;;;;;;;18.20;5.47;;;3.50;99.90;;;;;;4980666;28;20129;-67
2022/01/16 07:25:06;;;;;;;17.85;3.67;;;3.50;99.90;;;;;;4983490;28;20140;-68
2022/01/16 07:27:33;;;;;;;11.13;4.15;;;3.50;99.90;;;;;;4987580;28;20476;-65
2022/01/16 07:30:00;;;;;;;16.30;6.72;;;3.50;99.90;;;;;;4985100;28;20114;-64
2022/01/16 07:32:27;;;;;;;12.38;3.70;;;3.50;99.90;;;;;;4985605;28;20073;-65
2022/01/16 07:34:54;;;;;;;16.85;5.55;;;3.50;99.90;;;;;;4983576;28;20141;-72
2022/01/16 07:37:21;;;;;;;7.97;2.92;;;3.60;99.90;;;;;;4973588;28;20050;-66
2022/01/16 07:39:48;;;;;;;11.77;3.30;;;3.60;99.90;;;;;;4978198;28;20124;-66
2022/01/16 07:42:15;;;;;;;17.48;3.50;;;3.60;99.90;;;;;;4978995;28;20054;-68
2022/01/16 07:44:42;;;;;;;16.98;3.47;;;3.70;99.90;;;;;;4976617;28;20153;-67
2022/01/16 07:47:10;;;;;;;11.65;3.40;;;3.60;99.90;;;;;;4977610;28;20046;-65
2022/01/16 07:49:37;;;;;;;20.85;5.55;;;3.60;99.90;;;;;;4977726;28;20146;-66
2022/01/16 07:52:04;;;;;;;12.70;4.10;;;3.70;99.90;;;;;;4979168;28;20137;-67
2022/01/16 07:54:31;;;;;;;16.30;4.57;;;3.70;99.90;;;;;;4974889;28;20126;-70
2022/01/16 07:56:58;;;;;;;13.88;4.25;;;3.70;99.90;;;;;;4978222;28;20442;-75
2022/01/16 07:59:25;;;;;;;13.65;3.47;;;3.80;99.90;;;;;;4975519;28;20105;-66
2022/01/16 08:01:52;;;;;;;13.82;5.10;;;3.80;99.90;;;;;;4977290;28;20047;-63
2022/01/16 08:04:35;;;;;;;10.92;3.49;;;3.80;99.90;;;;;;4350272;28;10001363;-68
2022/01/16 08:07:03;;;;;;;18.77;2.90;;;3.80;99.90;;;;;;2052473;28;10002018;-70
2022/01/16 08:09:30;;;;;;;13.10;3.25;;;3.80;99.90;;;;;;4978372;28;20180;-69
2022/01/16 08:11:58;;;;;;;14.48;3.97;;;3.90;99.90;;;;;;4978784;28;20141;-65
2022/01/16 08:14:25;;;;;;;14.55;3.95;;;3.90;99.90;;;;;;4978213;28;20058;-64
2022/01/16 08:16:51;;;;;;;14.68;4.10;;;3.90;99.90;;;;;;4982643;28;20082;-64
2022/01/16 08:19:18;;;;;;;13.82;4.22;;;3.90;99.90;;;;;;4980672;28;20121;-64
2022/01/16 08:21:45;;;;;;;19.30;6.10;;;3.90;99.90;;;;;;4982866;28;20164;-67
2022/01/16 08:24:12;;;;;;;15.32;4.18;;;3.90;99.90;;;;;;4980928;28;20101;-65
2022/01/16 08:26:39;;;;;;;12.88;3.80;;;4.00;99.90;;;;;;4983761;28;20428;-64
2022/01/16 08:29:06;;;;;;;16.63;5.35;;;4.00;99.90;;;;;;4974174;28;20145;-68
2022/01/16 08:31:33;;;;;;;13.18;2.75;;;4.00;99.90;;;;;;4982033;28;20074;-66
2022/01/16 08:34:00;;;;;;;12.00;3.45;;;4.00;99.90;;;;;;4980966;28;20087;-65
2022/01/16 08:36:27;;;;;;;12.95;3.38;;;4.00;99.90;;;;;;4873480;28;22099;-70
2022/01/16 08:38:54;;;;;;;22.02;3.80;;;4.00;99.90;;;;;;996535;28;10001990;-66
2022/01/16 08:41:22;;;;;;;10.00;3.38;;;4.00;99.90;;;;;;4980465;28;20089;-68
2022/01/16 08:43:49;;;;;;;11.23;4.85;;;4.10;99.90;;;;;;4980958;28;20160;-67
2022/01/16 08:46:16;;;;;;;6.85;2.95;;;4.10;99.90;;;;;;4980713;28;20054;-72
2022/01/16 08:48:43;;;;;;;11.73;3.28;;;4.10;99.90;;;;;;4980519;28;20065;-63
2022/01/16 08:51:10;;;;;;;9.55;3.88;;;4.00;99.90;;;;;;4977972;28;20062;-67
2022/01/16 08:53:37;;;;;;;15.15;3.92;;;4.10;99.90;;;;;;4981349;28;20125;-66
2022/01/16 08:56:08;;;;;;;19.23;4.72;;;4.10;99.90;;;;;;4979356;28;20046;-64
2022/01/16 08:58:35;;;;;;;14.75;3.65;;;4.10;99.90;;;;;;4981609;28;20085;-67
2022/01/16 09:01:02;;;;;;;18.80;3.95;;;4.10;99.90;;;;;;4980419;28;21414;-66
2022/01/16 09:03:29;;;;;;;12.60;4.20;;;4.10;99.90;;;;;;4976935;28;20729;-66
2022/01/16 09:05:56;;;;;;;10.77;3.08;;;4.10;99.90;;;;;;4974311;28;20133;-66
2022/01/16 09:08:23;;;;;;;13.60;4.00;;;4.10;99.90;;;;;;4978302;28;20050;-67
2022/01/16 09:10:50;;;;;;;11.20;3.17;;;4.20;99.90;;;;;;4979405;28;20382;-68
2022/01/16 09:13:18;;;;;;;7.93;3.45;;;4.20;99.90;;;;;;4975511;28;20125;-66
2022/01/16 09:15:47;;;;;;;15.75;3.20;;;4.20;99.90;;;;;;4980441;28;20073;-63
2022/01/16 09:18:15;;;;;;;17.00;3.47;;;4.20;99.90;;;;;;4981356;28;20077;-71
2022/01/16 09:20:43;;;;;;;17.00;4.20;;;4.20;99.90;;;;;;4982046;28;20145;-69
2022/01/16 09:23:11;;;;;;;13.57;4.13;;;4.20;99.90;;;;;;4974358;28;20460;-65
2022/01/16 09:25:38;;;;;;;10.52;4.13;;;4.20;99.90;;;;;;4976862;28;20046;-64
2022/01/16 09:28:06;;;;;;;17.42;4.28;;;4.20;99.90;;;;;;4978405;28;20050;-66
2022/01/16 09:30:33;;;;;;;13.77;3.95;;;4.20;99.90;;;;;;4980353;28;20133;-66
2022/01/16 09:33:00;;;;;;;15.98;4.32;;;4.20;99.90;;;;;;4987013;28;20050;-69
2022/01/16 09:35:28;;;;;;;11.80;3.13;;;4.10;99.90;;;;;;4980059;28;20145;-66
2022/01/16 09:37:55;;;;;;;18.15;4.35;;;4.10;99.90;;;;;;4981314;28;20052;-69
2022/01/16 09:40:22;;;;;;;22.38;4.85;;;4.10;99.90;;;;;;4980217;28;20058;-63
2022/01/16 09:42:49;;;;;;;19.75;6.57;;;4.10;99.90;;;;;;4980737;28;21597;-71
2022/01/16 09:45:18;;;;;;;8.80;3.70;;;4.10;99.90;;;;;;4977091;28;20125;-63
2022/01/16 09:47:46;;;;;;;10.80;4.25;;;4.10;99.90;;;;;;4981739;28;20066;-72
2022/01/16 09:50:20;;;;;;;11.68;4.20;;;4.10;99.90;;;;;;4978491;28;20043;-67
2022/01/16 09:52:48;;;;;;;16.95;4.53;;;4.10;99.90;;;;;;4966411;28;20034;-72
2022/01/16 09:55:17;;;;;;;16.80;6.68;;;4.10;99.90;;;;;;4969889;28;20190;-65
2022/01/16 09:57:44;;;;;;;12.82;4.63;;;4.10;99.90;;;;;;4977503;28;20109;-66
2022/01/16 10:00:14;;;;;;;20.60;6.22;;;4.10;99.90;;;;;;4980528;28;20056;-64
2022/01/16 10:02:44;;;;;;;17.58;4.65;;;4.00;99.90;;;;;;4979241;28;20157;-69
2022/01/16 10:05:26;;;;;;;16.75;5.55;;;4.00;99.90;;;;;;4978632;28;20781;-67
2022/01/16 10:07:54;;;;;;;20.58;5.22;;;4.00;99.90;;;;;;4978525;28;20515;-64
2022/01/16 10:10:29;;;;;;;13.57;3.63;;;4.00;99.90;;;;;;4981467;28;20098;-71
2022/01/16 10:13:05;;;;;;;26.17;6.70;;;4.00;99.90;;;;;;4980957;28;20057;-66
2022/01/16 10:15:33;;;;;;;18.67;5.00;;;4.00;99.90;;;;;;4983795;28;20097;-70
2022/01/16 10:18:04;;;;;;;22.65;5.97;;;4.00;99.90;;;;;;4980518;28;20054;-74
2022/01/16 10:20:42;;;;;;;20.02;4.47;;;3.90;99.90;;;;;;4978524;28;20058;-78
2022/01/16 10:23:19;;;;;;;14.45;5.35;;;3.90;99.90;;;;;;3962484;28;10002020;-70
2022/01/16 10:25:48;;;;;;;18.15;4.68;;;3.90;99.90;;;;;;2741356;28;10002368;-65
2022/01/16 10:28:23;;;;;;;16.73;6.38;;;3.80;99.90;;;;;;4981069;28;20054;-63
2022/01/16 10:30:55;;;;;;;15.90;4.63;;;3.80;99.90;;;;;;4980235;28;20468;-67
2022/01/16 10:33:28;;;;;;;16.30;4.63;;;3.80;99.90;;;;;;4981061;28;20515;-69
2022/01/16 10:35:56;;;;;;;13.10;4.88;;;3.80;99.90;;;;;;4981406;28;20082;-70
2022/01/16 10:38:24;;;;;;;17.60;5.45;;;3.80;99.90;;;;;;4983336;28;20090;-66
2022/01/16 10:40:53;;;;;;;16.70;5.25;;;3.80;99.90;;;;;;4982474;28;20483;-66
2022/01/16 10:43:35;;;;;;;18.67;5.57;;;3.80;99.90;;;;;;4979999;28;20034;-63
2022/01/16 10:46:02;;;;;;;18.55;5.50;;;3.80;99.90;;;;;;4982114;28;20134;-66
2022/01/16 10:49:09;;;;;;;18.95;7.60;;;3.80;99.90;;;;;;4981558;28;20042;-66
2022/01/16 10:51:37;;;;;;;21.42;5.55;;;3.80;99.90;;;;;;4978277;28;20066;-67
2022/01/16 10:54:28;;;;;;;25.10;5.25;;;3.80;99.90;;;;;;4979649;28;20138;-70
2022/01/16 10:56:55;;;;;;;11.07;5.10;;;3.80;99.90;;;;;;4972988;28;20058;-64
2022/01/16 10:59:23;;;;;;;11.70;4.85;;;3.80;99.90;;;;;;4976936;28;20144;-66
2022/01/16 11:02:06;;;;;;;14.07;5.75;;;3.80;99.90;;;;;;4976825;28;20191;-66
2022/01/16 11:04:33;;;;;;;19.05;5.90;;;3.80;99.90;;;;;;4978742;28;20054;-67
2022/01/16 11:07:05;;;;;;;22.73;5.68;;;3.80;99.90;;;;;;4980999;28;20389;-73
2022/01/16 11:09:33;;;;;;;11.63;4.75;;;3.80;99.90;;;;;;4976047;28;20053;-66
2022/01/16 11:12:00;;;;;;;12.55;5.57;;;3.80;99.90;;;;;;4978176;28;20489;-71
2022/01/16 11:14:28;;;;;;;11.65;6.18;;;3.80;99.90;;;;;;4973390;28;20058;-71
2022/01/16 11:16:55;;;;;;;13.32;5.72;;;3.80;99.90;;;;;;4978243;28;20196;-71
2022/01/16 11:19:25;;;;;;;17.55;6.43;;;3.80;99.90;;;;;;4974055;28;20064;-64
2022/01/16 11:21:56;;;;;;;21.17;7.28;;;3.80;99.90;;;;;;4977095;28;20055;-66
2022/01/16 11:26:51;;;;;;;15.88;6.85;;;3.80;99.90;;;;;;4979059;28;20432;-66
2022/01/16 11:29:19;;;;;;;13.93;4.43;;;3.80;99.90;;;;;;4975725;28;20038;-70
2022/01/16 11:31:48;;;;;;;17.58;5.07;;;3.80;99.90;;;;;;4977296;28;20134;-69
2022/01/16 11:34:15;;;;;;;24.35;7.20;;;3.80;99.90;;;;;;4976528;28;20061;-73
2022/01/16 11:36:43;;;;;;;14.07;4.07;;;3.80;99.90;;;;;;4977996;28;20137;-66
2022/01/16 11:39:11;;;;;;;14.45;4.03;;;3.80;99.90;;;;;;4977867;28;20038;-66
2022/01/16 11:41:51;;;;;;;17.05;5.55;;;3.80;99.90;;;;;;4978991;28;20050;-69
2022/01/16 11:44:36;;;;;;;11.90;4.60;;;3.80;99.90;;;;;;4979456;28;21492;-67
2022/01/16 11:47:06;;;;;;;14.43;4.22;;;3.80;99.90;;;;;;4976802;28;20085;-66
2022/01/16 11:49:38;;;;;;;13.13;3.53;;;3.80;99.90;;;;;;4977524;28;20156;-68
2022/01/16 11:52:15;;;;;;;10.70;3.15;;;3.80;99.90;;;;;;4977620;28;20050;-70
2022/01/16 11:54:50;;;;;;;13.10;3.05;;;3.90;99.90;;;;;;4980644;28;20062;-67
2022/01/16 11:57:20;;;;;;;12.30;3.45;;;3.90;99.90;;;;;;4980159;28;20137;-73
2022/01/16 12:00:11;;;;;;;11.20;3.95;;;3.90;99.90;;;;;;4980570;28;20046;-67
2022/01/16 12:02:44;;;;;;;6.80;2.15;;;3.90;99.90;;;;;;4980378;28;20050;-70
2022/01/16 12:05:24;;;;;;;6.53;3.47;;;3.90;99.90;;;;;;4980024;28;20534;-68
2022/01/16 12:07:53;;;;;;;8.38;2.35;;;3.90;99.90;;;;;;4979847;28;20664;-65
2022/01/16 12:10:43;;;;;;;10.13;3.00;;;3.90;99.90;;;;;;4981355;28;21193;-65
2022/01/16 12:13:41;;;;;;;7.90;2.45;;;3.90;99.90;;;;;;4978982;28;20104;-68
2022/01/16 12:16:35;;;;;;;6.15;2.17;;;3.90;99.90;;;;;;4980818;28;20632;-67
2022/01/16 12:19:32;;;;;;;8.85;2.40;;;3.90;99.90;;;;;;4980173;28;20558;-63
2022/01/16 12:21:59;;;;;;;10.55;2.83;;;3.90;99.90;;;;;;4979924;28;20054;-67
2022/01/16 12:24:38;;;;;;;9.02;2.35;;;3.90;99.90;;;;;;4981707;28;20116;-68
2022/01/16 12:27:44;;;;;;;4.43;1.85;;;3.90;99.90;;;;;;4986216;28;20060;-63
2022/01/16 12:30:24;;;;;;;7.75;2.03;;;3.90;99.90;;;;;;4956392;28;20505;-67
2022/01/16 12:33:14;;;;;;;16.70;3.03;;;3.90;99.90;;;;;;4980621;28;20179;-69
2022/01/16 12:35:41;;;;;;;12.93;3.63;;;3.90;99.90;;;;;;4977718;28;20065;-66
2022/01/16 12:38:11;;;;;;;4.05;1.65;;;3.90;99.90;;;;;;4979535;28;20161;-67
2022/01/16 12:40:39;;;;;;;7.45;2.22;;;3.90;99.90;;;;;;4983064;28;20073;-65
2022/01/16 12:43:13;;;;;;;10.00;2.95;;;3.90;99.90;;;;;;4979342;28;20133;-65
2022/01/16 12:45:41;;;;;;;11.93;2.53;;;3.90;99.90;;;;;;4982203;28;20058;-64
2022/01/16 12:48:09;;;;;;;12.35;3.20;;;3.90;99.90;;;;;;4981343;28;20161;-64
2022/01/16 12:50:37;;;;;;;5.88;1.83;;;3.90;99.90;;;;;;4981069;28;20070;-71
2022/01/16 12:53:05;;;;;;;4.15;2.78;;;4.00;99.90;;;;;;4979707;28;20062;-69
2022/01/16 12:55:34;;;;;;;3.90;1.80;;;3.90;99.90;;;;;;4980920;28;20184;-65
2022/01/16 12:58:21;;;;;;;11.02;3.40;;;3.90;99.90;;;;;;4963474;28;20517;-64
2022/01/16 13:00:58;;;;;;;7.55;2.38;;;3.90;99.90;;;;;;4962769;28;20051;-63
2022/01/16 13:03:26;;;;;;;8.50;2.20;;;3.90;99.90;;;;;;4959249;28;20058;-71
2022/01/16 13:06:26;;;;;;;5.80;2.13;;;3.90;99.90;;;;;;4963244;28;21319;-69
2022/01/16 13:09:02;;;;;;;6.45;2.22;;;3.90;99.90;;;;;;4962642;28;20070;-72
2022/01/16 13:11:41;;;;;;;11.55;2.20;;;3.90;99.90;;;;;;4962013;28;20046;-67
2022/01/16 13:14:13;;;;;;;9.75;2.28;;;3.90;99.90;;;;;;4967245;28;20055;-73
2022/01/16 13:17:01;;;;;;;9.45;2.05;;;3.90;99.90;;;;;;4962440;28;21163;-68
2022/01/16 13:19:50;;;;;;;6.28;2.75;;;3.90;99.90;;;;;;4962701;28;20133;-65
2022/01/16 13:22:23;;;;;;;7.85;2.55;;;3.90;99.90;;;;;;4955307;28;20062;-69
2022/01/16 13:24:59;;;;;;;6.32;1.52;;;3.90;99.90;;;;;;4961184;28;20054;-67
2022/01/16 13:27:32;;;;;;;7.90;2.75;;;3.90;99.90;;;;;;4959293;28;20054;-67
2022/01/16 13:30:03;;;;;;;8.75;2.17;;;3.90;99.90;;;;;;4960281;28;20051;-70
2022/01/16 13:32:36;;;;;;;8.32;2.42;;;3.90;99.90;;;;;;4958721;28;20050;-70
2022/01/16 13:35:19;;;;;;;5.30;1.90;;;3.90;99.90;;;;;;4957967;28;20069;-64
2022/01/16 13:37:47;;;;;;;10.23;2.60;;;3.90;99.90;;;;;;4957235;28;20054;-67
2022/01/16 13:40:16;;;;;;;5.68;2.20;;;3.90;99.90;;;;;;4964572;28;20145;-65
2022/01/16 13:45:35;;;;;;;9.68;3.55;;;3.90;99.90;;;;;;4960215;28;20074;-69
2022/01/16 13:48:05;;;;;;;9.80;2.47;;;3.80;99.90;;;;;;4960654;28;20066;-67